Mellette, South Dakota
Current Conditions -  °F | °C
As of 6:53 AM on Friday 24 Oct 2014 (Local Time) from KABR Reporting Station
Haze Haze  
Wind Chill: 33°   Ceiling: Unl
Heat Index: 37°   Visibility: 6mi
Dew Point: 35°   Wind: 5mph
Humidity: 93%   Direction: 220°SW
Pressure: 29.85"   Gusts: NA
Location:  45.15°N, 98.5°W
Report Text: KABR 241153Z AUTO 22004KT 6SM BR CLR 03/02 A2985 RMK AO2 SLP114 T00280017 10061 20006 53005
Loading
Personal Weather Stations






























Interactive Weather Map
Tropical Storm Tracking
New forecast layout! Learn more

10-Day Weather Forecast

Advertisements
Track Severe Weather on mobile